Dockton, Washington
Current Conditions -  °F | °C
As of 5:17 PM on Tuesday 25 Nov 2014 (Local Time) from KSEA Reporting Station
Overcast Overcast  
Wind Chill: 55°   Ceiling: 1700
Heat Index: 55°   Visibility: 10mi
Dew Point: 54°   Wind: 17mph
Humidity: 94%   Direction: 200°SSW
Pressure: 30.16"   Gusts: NA
Location:  47.4122°N, 122.472°W
Report Text: KSEA 260117Z 20015KT 10SM FEW008 BKN017 OVC023 13/12 A3016 RMK AO2 PK WND 21026/0059
Loading
Personal Weather Stations






























Interactive Weather Map New forecast layout! Learn more

10-Day Weather Forecast

Advertisements
Track Severe Weather on mobile